Time;durP1;ratioP1;P1;durP2;ratioP2;P2;SDS_P1;SDS_P2;PMS_P1;PMS_P2;Temp;Humidity;BMP_temperature;BMP_pressure;BME280_temperature;BME280_humidity;BME280_pressure;Samples;Min_cycle;Max_cycle;Signal;HPM_P1;HPM_P2
2022/04/26 03:36:39;;;;;;;;;;;;;;;;;;6151864;28;20127;-73
2022/04/26 03:39:41;;;;;;;1.90;1.27;;;;;;;;;;6153982;28;19918;-73
2022/04/26 03:42:43;;;;;;;2.42;1.10;;;;;;;;;;6154158;28;20059;-73
2022/04/26 03:45:45;;;;;;;1.98;1.02;;;;;;;;;;6156152;28;20058;-73
2022/04/26 03:48:46;;;;;;;2.60;1.20;;;;;;;;;;6154043;28;20066;-73
2022/04/26 03:51:50;;;;;;;3.35;1.30;;;;;;;;;;6151096;28;20051;-73
2022/04/26 03:54:51;;;;;;;2.67;1.30;;;;;;;;;;6150346;28;20103;-73
2022/04/26 03:57:53;;;;;;;2.05;1.30;;;;;;;;;;6152683;28;20150;-73
2022/04/26 04:00:54;;;;;;;2.10;1.20;;;;;;;;;;6147900;28;20055;-73
2022/04/26 04:03:56;;;;;;;1.75;1.13;;;;;;;;;;6154273;28;20051;-74
2022/04/26 04:07:00;;;;;;;2.17;1.10;;;;;;;;;;6147478;28;20054;-73
2022/04/26 04:10:01;;;;;;;2.05;1.23;;;;;;;;;;6146975;28;20321;-73
2022/04/26 04:13:03;;;;;;;1.30;1.20;;;;;;;;;;6164107;28;20055;-73
2022/04/26 04:16:05;;;;;;;7.43;1.42;;;;;;;;;;6174017;28;20662;-73
2022/04/26 04:19:18;;;;;;;2.85;1.10;;;;;;;;;;6174128;28;20365;-74
2022/04/26 04:22:22;;;;;;;5.70;1.80;;;;;;;;;;6176348;28;20046;-73
2022/04/26 04:25:24;;;;;;;4.17;0.90;;;;;;;;;;6175710;28;20455;-72
2022/04/26 04:28:25;;;;;;;1.88;1.27;;;;;;;;;;6171427;28;20063;-73
2022/04/26 04:31:27;;;;;;;1.55;1.10;;;;;;;;;;6182317;28;20495;-73
2022/04/26 04:34:28;;;;;;;1.80;1.10;;;;;;;;;;6181595;28;20063;-73
2022/04/26 04:37:31;;;;;;;6.10;1.38;;;;;;;;;;6179917;28;20051;-73
2022/04/26 04:40:33;;;;;;;3.35;1.40;;;;;;;;;;6180122;28;20373;-73
2022/04/26 04:43:35;;;;;;;2.55;1.65;;;;;;;;;;6176384;28;20055;-73
2022/04/26 04:46:36;;;;;;;3.08;1.55;;;;;;;;;;6182156;28;20118;-73
2022/04/26 04:49:38;;;;;;;2.10;1.58;;;;;;;;;;6180514;28;20059;-73
2022/04/26 04:52:41;;;;;;;3.58;1.30;;;;;;;;;;6176324;28;20118;-74
2022/04/26 04:55:42;;;;;;;1.88;1.20;;;;;;;;;;6182866;28;20072;-73
2022/04/26 04:58:44;;;;;;;1.95;1.27;;;;;;;;;;6181807;28;20051;-73
2022/04/26 05:01:46;;;;;;;5.20;1.40;;;;;;;;;;6175687;28;20342;-73
2022/04/26 05:04:49;;;;;;;4.97;1.30;;;;;;;;;;6178648;28;20273;-72
2022/04/26 05:07:52;;;;;;;3.25;1.35;;;;;;;;;;6175529;28;20129;-73
2022/04/26 05:10:54;;;;;;;2.30;1.30;;;;;;;;;;6178271;28;20051;-73
2022/04/26 05:13:55;;;;;;;2.13;1.15;;;;;;;;;;6175959;28;20055;-76
2022/04/26 05:16:57;;;;;;;1.90;1.23;;;;;;;;;;6177796;28;20053;-75
2022/04/26 05:20:00;;;;;;;2.30;1.30;;;;;;;;;;6176806;28;20055;-76
2022/04/26 05:26:22;;;;;;;5.35;1.95;;;;;;;;;;6177939;28;20047;-75
2022/04/26 05:29:24;;;;;;;2.08;1.50;;;;;;;;;;6181380;28;20058;-72
2022/04/26 05:32:27;;;;;;;1.73;1.50;;;;;;;;;;6179424;28;20156;-73
2022/04/26 05:35:29;;;;;;;3.07;1.27;;;;;;;;;;6174092;28;20046;-75
2022/04/26 05:38:33;;;;;;;2.20;1.40;;;;;;;;;;6175927;28;20100;-75
2022/04/26 05:41:35;;;;;;;3.72;1.40;;;;;;;;;;6178762;28;20089;-75
2022/04/26 05:44:38;;;;;;;2.90;1.30;;;;;;;;;;6172620;28;20106;-75
2022/04/26 05:47:44;;;;;;;1.42;1.10;;;;;;;;;;6173706;28;20051;-75
2022/04/26 05:50:45;;;;;;;1.48;1.20;;;;;;;;;;6163968;28;20099;-75
2022/04/26 05:53:49;;;;;;;3.17;1.40;;;;;;;;;;6153057;28;20111;-74
2022/04/26 05:56:52;;;;;;;1.85;1.10;;;;;;;;;;6148601;28;20058;-74
2022/04/26 05:59:54;;;;;;;2.13;1.20;;;;;;;;;;6152427;28;20058;-75
2022/04/26 06:02:55;;;;;;;2.00;1.40;;;;;;;;;;6153232;28;20053;-75
2022/04/26 06:05:57;;;;;;;3.85;1.40;;;;;;;;;;6147644;28;20105;-75
2022/04/26 06:09:00;;;;;;;1.88;1.42;;;;;;;;;;6143125;28;20055;-76
2022/04/26 06:12:01;;;;;;;2.35;1.63;;;;;;;;;;6148162;28;20063;-75
2022/04/26 06:15:04;;;;;;;2.25;1.70;;;;;;;;;;6146320;28;20051;-75
2022/04/26 06:18:06;;;;;;;2.63;1.67;;;;;;;;;;6149439;28;20146;-75
2022/04/26 06:21:07;;;;;;;2.15;1.92;;;;;;;;;;6150308;28;20054;-75
2022/04/26 06:24:10;;;;;;;2.67;1.95;;;;;;;;;;6152298;28;20053;-76
2022/04/26 06:27:12;;;;;;;4.85;2.30;;;;;;;;;;6145018;28;20052;-75
2022/04/26 06:30:15;;;;;;;3.50;2.00;;;;;;;;;;6145665;28;20047;-75
2022/04/26 06:33:17;;;;;;;4.40;2.30;;;;;;;;;;6145507;28;20078;-76
2022/04/26 06:36:19;;;;;;;3.25;2.05;;;;;;;;;;6150633;28;20047;-75
2022/04/26 06:39:22;;;;;;;3.10;2.38;;;;;;;;;;6149486;28;20055;-74
2022/04/26 06:42:23;;;;;;;4.83;3.13;;;;;;;;;;6155629;28;20054;-74
2022/04/26 06:45:25;;;;;;;4.13;3.72;;;;;;;;;;6152221;28;20106;-75
2022/04/26 06:48:27;;;;;;;8.82;4.55;;;;;;;;;;6146467;28;20059;-74
2022/04/26 06:51:30;;;;;;;4.95;4.03;;;;;;;;;;6150097;28;20059;-75
2022/04/26 06:54:33;;;;;;;4.55;3.38;;;;;;;;;;6144797;28;20059;-74
2022/04/26 06:57:36;;;;;;;4.10;3.53;;;;;;;;;;6147057;28;20314;-74
2022/04/26 07:00:37;;;;;;;5.38;4.03;;;;;;;;;;6152163;28;20060;-74
2022/04/26 07:03:39;;;;;;;5.43;4.43;;;;;;;;;;6150161;28;20126;-74
2022/04/26 07:06:41;;;;;;;6.18;4.03;;;;;;;;;;6149305;28;20330;-74
2022/04/26 07:09:44;;;;;;;7.13;5.93;;;;;;;;;;6149256;28;20678;-74
2022/04/26 07:12:45;;;;;;;6.82;5.70;;;;;;;;;;6176117;28;20054;-75
2022/04/26 07:15:47;;;;;;;6.90;5.60;;;;;;;;;;6181329;28;20055;-74
2022/04/26 07:18:49;;;;;;;7.32;5.00;;;;;;;;;;6176611;28;20341;-76
2022/04/26 07:21:50;;;;;;;9.05;5.78;;;;;;;;;;6171724;28;20055;-74
2022/04/26 07:24:53;;;;;;;7.47;5.85;;;;;;;;;;6175160;28;20166;-77
2022/04/26 07:27:55;;;;;;;10.43;6.05;;;;;;;;;;6174104;28;20046;-76
2022/04/26 07:30:57;;;;;;;8.15;6.68;;;;;;;;;;6172713;28;20076;-77
2022/04/26 07:37:29;;;;;;;10.45;7.63;;;;;;;;;;6093648;29;20108;-75
2022/04/26 07:40:32;;;;;;;9.77;7.93;;;;;;;;;;6111587;29;20059;-73
2022/04/26 07:43:33;;;;;;;12.63;8.00;;;;;;;;;;6113616;29;20063;-75
2022/04/26 07:46:35;;;;;;;14.93;7.40;;;;;;;;;;6114450;29;20108;-74
2022/04/26 07:49:37;;;;;;;10.65;7.80;;;;;;;;;;6115266;29;20582;-74
2022/04/26 07:52:38;;;;;;;14.65;8.60;;;;;;;;;;6111695;29;20064;-75
2022/04/26 07:55:41;;;;;;;23.67;9.25;;;;;;;;;;6114396;29;20334;-74
2022/04/26 07:58:43;;;;;;;11.40;9.50;;;;;;;;;;6112627;29;20244;-75
2022/04/26 08:01:45;;;;;;;12.07;9.65;;;;;;;;;;6114057;29;20071;-75
2022/04/26 08:04:46;;;;;;;12.65;10.35;;;;;;;;;;6113000;29;20359;-76
2022/04/26 08:07:49;;;;;;;13.40;10.10;;;;;;;;;;6113236;29;20059;-75
2022/04/26 08:10:52;;;;;;;12.90;10.00;;;;;;;;;;6135564;28;20056;-75
2022/04/26 08:13:54;;;;;;;14.32;9.95;;;;;;;;;;6179253;28;20406;-75
2022/04/26 08:16:56;;;;;;;13.40;10.40;;;;;;;;;;6179311;28;20054;-76
2022/04/26 08:19:57;;;;;;;13.00;9.88;;;;;;;;;;6176507;28;20322;-74
2022/04/26 08:22:59;;;;;;;16.02;12.05;;;;;;;;;;6179251;28;20050;-77
2022/04/26 08:29:22;;;;;;;16.95;11.57;;;;;;;;;;6177532;28;20341;-75
2022/04/26 08:32:26;;;;;;;15.77;11.95;;;;;;;;;;6175730;28;20047;-75
2022/04/26 08:35:28;;;;;;;15.38;11.80;;;;;;;;;;6179143;28;20078;-76
2022/04/26 08:38:30;;;;;;;13.82;11.60;;;;;;;;;;6177448;28;20153;-75
2022/04/26 08:41:34;;;;;;;16.35;11.55;;;;;;;;;;6182000;28;20063;-75
2022/04/26 08:44:35;;;;;;;17.98;11.30;;;;;;;;;;6173720;28;20293;-76
2022/04/26 08:51:08;;;;;;;14.38;11.65;;;;;;;;;;6144582;28;20047;-76
2022/04/26 08:54:11;;;;;;;14.35;10.52;;;;;;;;;;6149608;28;20052;-77
2022/04/26 08:57:14;;;;;;;;;;;;;;;;;;6152850;28;20074;-76
2022/04/26 09:00:16;;;;;;;12.93;9.82;;;;;;;;;;6153024;28;19926;-75
2022/04/26 09:03:18;;;;;;;11.43;9.68;;;;;;;;;;6149953;28;20188;-76
2022/04/26 09:06:21;;;;;;;11.48;10.05;;;;;;;;;;6148550;28;20047;-76
2022/04/26 09:09:24;;;;;;;11.60;10.35;;;;;;;;;;6154555;28;20066;-76
2022/04/26 09:12:27;;;;;;;12.03;9.27;;;;;;;;;;6149712;28;20079;-76
2022/04/26 09:15:35;;;;;;;14.25;9.73;;;;;;;;;;6154715;28;20405;-77
2022/04/26 09:18:37;;;;;;;16.67;10.85;;;;;;;;;;6156190;28;20059;-76
2022/04/26 09:21:54;;;;;;;13.32;10.52;;;;;;;;;;6149007;28;20154;-76
2022/04/26 09:24:57;;;;;;;11.52;10.15;;;;;;;;;;6158019;28;20063;-76
2022/04/26 09:28:00;;;;;;;12.70;11.02;;;;;;;;;;6174212;28;20053;-74
2022/04/26 09:31:02;;;;;;;11.93;10.20;;;;;;;;;;6143960;28;20314;-74
2022/04/26 09:34:11;;;;;;;11.00;9.82;;;;;;;;;;6149925;28;20074;-75
2022/04/26 09:37:13;;;;;;;12.30;9.70;;;;;;;;;;6152248;28;20119;-75
2022/04/26 09:40:15;;;;;;;11.15;9.32;;;;;;;;;;6157200;28;20114;-72
2022/04/26 09:43:19;;;;;;;8.93;8.02;;;;;;;;;;6152932;28;20067;-74
2022/04/26 09:46:21;;;;;;;125.25;68.00;;;;;;;;;;6156363;28;20096;-73
2022/04/26 09:49:24;;;;;;;33.45;19.42;;;;;;;;;;6154890;28;20059;-74
2022/04/26 09:52:26;;;;;;;12.77;10.00;;;;;;;;;;6151947;28;20051;-73
2022/04/26 09:55:28;;;;;;;112.65;67.38;;;;;;;;;;6153191;28;20059;-74
2022/04/26 09:58:34;;;;;;;58.60;34.50;;;;;;;;;;6147572;28;20059;-74
2022/04/26 10:01:39;;;;;;;50.20;29.15;;;;;;;;;;6152904;28;20055;-74
2022/04/26 10:04:46;;;;;;;78.20;46.78;;;;;;;;;;6149173;28;20067;-73
2022/04/26 10:07:48;;;;;;;46.53;28.13;;;;;;;;;;6147871;28;20130;-74
2022/04/26 10:10:50;;;;;;;73.85;45.47;;;;;;;;;;6151427;28;20164;-73
2022/04/26 10:13:53;;;;;;;43.95;28.63;;;;;;;;;;6152374;28;20059;-73
2022/04/26 10:16:55;;;;;;;15.27;13.05;;;;;;;;;;6172999;28;20043;-74
2022/04/26 10:19:56;;;;;;;12.75;10.25;;;;;;;;;;6171143;28;20286;-74
2022/04/26 10:22:58;;;;;;;11.35;9.32;;;;;;;;;;6174301;28;20303;-75
2022/04/26 10:26:25;;;;;;;10.57;9.48;;;;;;;;;;6176901;28;20063;-74
2022/04/26 10:29:28;;;;;;;12.02;8.98;;;;;;;;;;6177382;28;20062;-75
2022/04/26 10:32:31;;;;;;;10.47;8.13;;;;;;;;;;6177512;28;20047;-74
2022/04/26 10:35:32;;;;;;;9.95;8.27;;;;;;;;;;6175797;28;20085;-74
2022/04/26 10:38:34;;;;;;;7.97;7.20;;;;;;;;;;6172104;28;20062;-74
2022/04/26 10:41:37;;;;;;;9.23;6.95;;;;;;;;;;6172839;28;20066;-75
2022/04/26 10:44:41;;;;;;;8.20;7.18;;;;;;;;;;6172824;28;20085;-74
2022/04/26 10:47:43;;;;;;;9.50;6.93;;;;;;;;;;6177009;28;20055;-74
2022/04/26 10:50:44;;;;;;;7.72;6.93;;;;;;;;;;6177700;28;20154;-75
2022/04/26 10:53:46;;;;;;;9.27;7.45;;;;;;;;;;6176433;28;20058;-75
2022/04/26 10:56:48;;;;;;;8.02;7.10;;;;;;;;;;6177085;28;20113;-74
2022/04/26 10:59:53;;;;;;;9.75;7.22;;;;;;;;;;6176215;28;20058;-74
2022/04/26 11:03:02;;;;;;;7.90;7.10;;;;;;;;;;6175270;28;20058;-75
2022/04/26 11:06:05;;;;;;;8.02;6.38;;;;;;;;;;6169293;28;20115;-75
2022/04/26 11:09:08;;;;;;;9.35;7.15;;;;;;;;;;6174784;28;20078;-75
2022/04/26 11:12:10;;;;;;;7.85;6.35;;;;;;;;;;6167321;28;20139;-75
2022/04/26 11:15:14;;;;;;;7.97;6.80;;;;;;;;;;6178499;28;20097;-74
2022/04/26 11:18:22;;;;;;;7.97;7.15;;;;;;;;;;6176697;28;20078;-74
2022/04/26 11:21:25;;;;;;;11.07;7.22;;;;;;;;;;6176857;28;20059;-74
2022/04/26 11:28:03;;;;;;;7.88;7.07;;;;;;;;;;6177388;28;20050;-74
2022/04/26 11:31:05;;;;;;;8.15;7.10;;;;;;;;;;6176023;28;20043;-74
2022/04/26 11:34:07;;;;;;;7.07;6.38;;;;;;;;;;6175900;28;20086;-74
2022/04/26 11:37:12;;;;;;;8.00;7.20;;;;;;;;;;6177965;28;20070;-75
2022/04/26 11:40:22;;;;;;;9.38;7.45;;;;;;;;;;6174604;28;20215;-75
2022/04/26 11:43:24;;;;;;;9.63;7.18;;;;;;;;;;6176232;28;20062;-74
2022/04/26 11:46:27;;;;;;;7.90;7.10;;;;;;;;;;6172765;28;20093;-75
2022/04/26 11:49:39;;;;;;;8.20;7.18;;;;;;;;;;6179286;28;20109;-74
2022/04/26 11:52:43;;;;;;;7.80;6.80;;;;;;;;;;6175827;28;20341;-74
2022/04/26 11:55:46;;;;;;;9.98;7.40;;;;;;;;;;6179079;28;20046;-75
2022/04/26 11:58:47;;;;;;;7.38;6.60;;;;;;;;;;6181255;28;20062;-74
2022/04/26 12:01:53;;;;;;;7.25;6.55;;;;;;;;;;6184053;28;20099;-74
2022/04/26 12:04:55;;;;;;;8.23;6.22;;;;;;;;;;6178088;28;20349;-74
2022/04/26 12:07:56;;;;;;;8.85;6.20;;;;;;;;;;6177219;28;20059;-75
2022/04/26 12:11:16;;;;;;;6.30;5.43;;;;;;;;;;6183080;28;20254;-75
2022/04/26 12:14:21;;;;;;;6.30;5.53;;;;;;;;;;6175563;28;20612;-75
2022/04/26 12:17:29;;;;;;;7.22;5.97;;;;;;;;;;6178389;28;20266;-75
2022/04/26 12:20:31;;;;;;;6.47;5.88;;;;;;;;;;6179832;28;20121;-75
2022/04/26 12:23:32;;;;;;;6.88;5.47;;;;;;;;;;6177375;28;20082;-75
2022/04/26 12:26:34;;;;;;;6.82;6.07;;;;;;;;;;6179666;28;20118;-75
2022/04/26 12:29:41;;;;;;;7.93;6.00;;;;;;;;;;6181809;28;20082;-75
2022/04/26 12:32:44;;;;;;;6.80;6.15;;;;;;;;;;6181387;28;20243;-75
2022/04/26 12:35:56;;;;;;;;;;;;;;;;;;6180597;28;20062;-76
2022/04/26 12:39:01;;;;;;;6.50;5.75;;;;;;;;;;6152663;28;19918;-75
2022/04/26 12:42:03;;;;;;;7.25;5.45;;;;;;;;;;6176688;28;20101;-74
2022/04/26 12:45:06;;;;;;;6.40;5.80;;;;;;;;;;6153098;28;20055;-74
2022/04/26 12:51:29;;;;;;;7.88;6.43;;;;;;;;;;6152225;28;20051;-74
2022/04/26 12:54:31;;;;;;;8.05;6.97;;;;;;;;;;6153673;28;20047;-74
2022/04/26 12:57:46;;;;;;;8.50;7.10;;;;;;;;;;6151563;28;20074;-74
2022/04/26 13:00:50;;;;;;;8.70;7.22;;;;;;;;;;6150757;28;20099;-73
2022/04/26 13:03:55;;;;;;;8.82;6.97;;;;;;;;;;6155820;28;20052;-73
2022/04/26 13:06:58;;;;;;;10.45;8.20;;;;;;;;;;6180212;28;20272;-73
2022/04/26 13:09:59;;;;;;;49.60;33.90;;;;;;;;;;6174428;28;20050;-73
2022/04/26 13:13:01;;;;;;;19.02;12.77;;;;;;;;;;6177912;28;20274;-74
2022/04/26 13:16:03;;;;;;;10.85;8.45;;;;;;;;;;6176723;28;20051;-74
2022/04/26 13:19:06;;;;;;;11.38;7.57;;;;;;;;;;6174168;28;20071;-74
2022/04/26 13:22:07;;;;;;;7.72;6.78;;;;;;;;;;6173297;28;20055;-74
2022/04/26 13:25:10;;;;;;;9.35;7.70;;;;;;;;;;6167337;28;20310;-75
2022/04/26 13:28:11;;;;;;;8.67;7.70;;;;;;;;;;6170931;28;20063;-74
2022/04/26 13:31:13;;;;;;;10.15;7.78;;;;;;;;;;6176551;28;20346;-75
2022/04/26 13:34:16;;;;;;;10.32;7.30;;;;;;;;;;6177103;28;20066;-75
2022/04/26 13:37:19;;;;;;;9.77;7.47;;;;;;;;;;6173266;28;20328;-74
2022/04/26 13:40:21;;;;;;;8.75;7.63;;;;;;;;;;6176668;28;20115;-75
2022/04/26 13:43:24;;;;;;;7.80;7.07;;;;;;;;;;6159679;28;20061;-74
2022/04/26 13:46:25;;;;;;;11.15;7.35;;;;;;;;;;6152393;28;20055;-74
2022/04/26 13:49:28;;;;;;;9.50;6.70;;;;;;;;;;6153504;28;20345;-75
2022/04/26 13:52:30;;;;;;;8.40;7.53;;;;;;;;;;6149742;28;20090;-75
2022/04/26 13:55:31;;;;;;;8.57;7.78;;;;;;;;;;6147889;28;20066;-75
2022/04/26 13:58:33;;;;;;;13.32;7.90;;;;;;;;;;6154730;28;20121;-75
2022/04/26 14:01:35;;;;;;;8.30;7.40;;;;;;;;;;6146882;28;20362;-75
2022/04/26 14:04:38;;;;;;;35.95;28.85;;;;;;;;;;6156408;28;20059;-75
2022/04/26 14:07:39;;;;;;;;;;;;;;;;;;6147122;28;20350;-75
2022/04/26 14:10:41;;;;;;;9.80;8.07;;;;;;;;;;6148036;28;19933;-74
2022/04/26 14:23:42;;;;;;;10.82;7.47;;;;;;;;;;6155083;28;20058;-76
2022/04/26 14:26:44;;;;;;;7.72;6.20;;;;;;;;;;6152052;28;20047;-76
2022/04/26 14:29:45;;;;;;;8.50;7.30;;;;;;;;;;6163845;28;20125;-75
2022/04/26 14:32:48;;;;;;;8.23;7.00;;;;;;;;;;6149960;28;20047;-76
2022/04/26 14:35:51;;;;;;;7.80;6.43;;;;;;;;;;6148514;28;20293;-75
2022/04/26 14:38:54;;;;;;;9.48;7.20;;;;;;;;;;6148493;28;20059;-76
2022/04/26 14:41:55;;;;;;;7.10;6.40;;;;;;;;;;6146688;28;20058;-76
2022/04/26 14:44:57;;;;;;;7.72;6.47;;;;;;;;;;6146845;28;20066;-75
2022/04/26 14:48:00;;;;;;;7.10;6.40;;;;;;;;;;6151710;28;20580;-77
2022/04/26 14:51:04;;;;;;;9.43;6.65;;;;;;;;;;6149635;28;20282;-76
2022/04/26 14:54:06;;;;;;;8.38;6.13;;;;;;;;;;6156941;28;20074;-76
2022/04/26 14:57:07;;;;;;;8.87;6.37;;;;;;;;;;6160503;28;20102;-76
2022/04/26 15:00:10;;;;;;;9.65;7.07;;;;;;;;;;6154233;28;20250;-74
2022/04/26 15:03:11;;;;;;;;;;;;;;;;;;6165501;28;20055;-74
2022/04/26 15:06:15;;;;;;;7.65;6.95;;;;;;;;;;6156510;28;19966;-75
2022/04/26 15:19:15;;;;;;;8.70;7.28;;;;;;;;;;6166673;28;20050;-74
2022/04/26 15:22:19;;;;;;;;;;;;;;;;;;6169901;28;20058;-75
2022/04/26 15:25:20;;;;;;;11.95;7.43;;;;;;;;;;6176324;28;19932;-74
2022/04/26 15:28:23;;;;;;;10.23;6.68;;;;;;;;;;6166180;28;20055;-75
2022/04/26 15:31:25;;;;;;;8.60;7.57;;;;;;;;;;6171859;28;20274;-75
2022/04/26 15:34:27;;;;;;;9.07;6.80;;;;;;;;;;6171248;28;20086;-75
2022/04/26 15:37:30;;;;;;;8.27;6.80;;;;;;;;;;6171953;28;20104;-75
2022/04/26 15:40:32;;;;;;;8.82;7.72;;;;;;;;;;6172208;28;20101;-75
2022/04/26 15:43:33;;;;;;;12.00;8.05;;;;;;;;;;6169685;28;20075;-75
2022/04/26 15:46:35;;;;;;;11.70;7.28;;;;;;;;;;6172028;28;20058;-75
2022/04/26 15:49:37;;;;;;;10.52;7.43;;;;;;;;;;6166635;28;20146;-75
2022/04/26 15:52:40;;;;;;;8.88;7.05;;;;;;;;;;6173176;28;20061;-75
2022/04/26 15:55:42;;;;;;;12.65;8.90;;;;;;;;;;6174511;28;20078;-76
2022/04/26 15:58:44;;;;;;;10.90;8.15;;;;;;;;;;6175551;28;20645;-74
2022/04/26 16:01:46;;;;;;;10.77;8.13;;;;;;;;;;6177068;28;20268;-76
2022/04/26 16:04:48;;;;;;;11.55;8.15;;;;;;;;;;6155044;28;20131;-73
2022/04/26 16:07:51;;;;;;;15.07;9.15;;;;;;;;;;6149322;28;20094;-74
2022/04/26 16:20:50;;;;;;;17.50;12.60;;;;;;;;;;6151785;28;20059;-73
2022/04/26 16:23:54;;;;;;;20.52;11.13;;;;;;;;;;6146282;28;20246;-73
2022/04/26 16:26:56;;;;;;;21.58;12.13;;;;;;;;;;6162765;28;20046;-73
2022/04/26 16:30:00;;;;;;;6.82;5.03;;;;;;;;;;6162720;28;20067;-73
2022/04/26 16:33:04;;;;;;;;;;;;;;;;;;6162649;28;20073;-74
2022/04/26 16:36:07;;;;;;;7.00;4.50;;;;;;;;;;6160834;28;19930;-73
2022/04/26 16:39:10;;;;;;;6.93;4.80;;;;;;;;;;6155626;28;20047;-73
2022/04/26 16:42:12;;;;;;;7.27;5.33;;;;;;;;;;6153750;28;20115;-74
2022/04/26 16:45:14;;;;;;;5.85;4.90;;;;;;;;;;6156176;28;20471;-74
2022/04/26 16:48:16;;;;;;;9.48;5.43;;;;;;;;;;6174439;28;20126;-74
2022/04/26 16:51:19;;;;;;;8.60;6.30;;;;;;;;;;6163621;28;20243;-73
2022/04/26 16:54:23;;;;;;;9.07;6.50;;;;;;;;;;6151950;28;20053;-73
2022/04/26 16:57:26;;;;;;;10.77;6.18;;;;;;;;;;6154367;28;20054;-74
2022/04/26 17:00:28;;;;;;;9.50;6.07;;;;;;;;;;6156052;28;20274;-74
2022/04/26 17:03:30;;;;;;;8.65;6.30;;;;;;;;;;6161707;28;20059;-73
2022/04/26 17:06:32;;;;;;;7.45;5.65;;;;;;;;;;6151520;28;20107;-73
2022/04/26 17:09:36;;;;;;;12.13;6.88;;;;;;;;;;6150136;28;20059;-73
2022/04/26 17:12:39;;;;;;;10.38;7.32;;;;;;;;;;6155164;28;20261;-73
2022/04/26 17:15:41;;;;;;;12.90;7.75;;;;;;;;;;6155013;28;20054;-74
2022/04/26 17:18:42;;;;;;;13.68;8.20;;;;;;;;;;6156077;28;20055;-73
2022/04/26 17:21:46;;;;;;;11.00;7.78;;;;;;;;;;6156078;28;20094;-74
2022/04/26 17:28:08;;;;;;;11.18;8.68;;;;;;;;;;6157686;28;20320;-73
2022/04/26 17:31:11;;;;;;;10.40;8.80;;;;;;;;;;6158566;28;20239;-74
2022/04/26 17:34:13;;;;;;;12.32;8.65;;;;;;;;;;6148638;28;20234;-74
2022/04/26 17:37:14;;;;;;;12.45;8.90;;;;;;;;;;6152299;28;20062;-73
2022/04/26 17:40:17;;;;;;;12.93;9.50;;;;;;;;;;6148824;28;20074;-74
2022/04/26 17:43:19;;;;;;;12.13;9.20;;;;;;;;;;6146343;28;20059;-74
2022/04/26 17:46:21;;;;;;;13.00;9.02;;;;;;;;;;6151557;28;20400;-73
2022/04/26 17:49:23;;;;;;;14.30;9.20;;;;;;;;;;6149259;28;20057;-72
2022/04/26 17:52:25;;;;;;;11.98;9.98;;;;;;;;;;6151756;28;20055;-73
2022/04/26 17:58:47;;;;;;;13.13;8.77;;;;;;;;;;6147792;28;20327;-74
2022/04/26 18:01:49;;;;;;;12.90;9.25;;;;;;;;;;6147575;28;20051;-74
2022/04/26 18:04:51;;;;;;;12.30;8.48;;;;;;;;;;6147184;28;20051;-73
2022/04/26 18:07:52;;;;;;;13.35;10.10;;;;;;;;;;6150225;28;20056;-75
2022/04/26 18:10:57;;;;;;;15.93;11.32;;;;;;;;;;6145826;28;20106;-75
2022/04/26 18:13:59;;;;;;;14.23;11.13;;;;;;;;;;6146769;28;20058;-75
2022/04/26 18:17:01;;;;;;;15.80;10.40;;;;;;;;;;6147441;28;20059;-74
2022/04/26 18:20:04;;;;;;;12.95;9.95;;;;;;;;;;6148846;28;20079;-75
2022/04/26 18:23:06;;;;;;;;;;;;;;;;;;6153541;28;20118;-77
2022/04/26 18:26:12;;;;;;;12.98;9.70;;;;;;;;;;6147615;28;19922;-74
2022/04/26 18:29:19;;;;;;;15.82;9.80;;;;;;;;;;6146514;28;20091;-74
2022/04/26 18:32:21;;;;;;;14.55;9.43;;;;;;;;;;6146678;28;20054;-75
2022/04/26 18:35:23;;;;;;;14.30;9.85;;;;;;;;;;6150589;28;20048;-74
2022/04/26 18:38:24;;;;;;;12.20;9.85;;;;;;;;;;6144315;28;20087;-74
2022/04/26 18:41:29;;;;;;;14.90;10.38;;;;;;;;;;6149613;28;20287;-74
2022/04/26 18:44:31;;;;;;;13.40;9.45;;;;;;;;;;6145914;28;20055;-74
2022/04/26 18:47:32;;;;;;;14.25;8.70;;;;;;;;;;6147678;28;20946;-75
2022/04/26 18:50:34;;;;;;;11.00;9.05;;;;;;;;;;6150289;28;20086;-75
2022/04/26 18:53:36;;;;;;;10.63;9.52;;;;;;;;;;6149860;28;20058;-74
2022/04/26 18:56:39;;;;;;;16.70;10.10;;;;;;;;;;6153665;28;20063;-74
2022/04/26 18:59:42;;;;;;;13.10;9.63;;;;;;;;;;6149902;28;20067;-73
2022/04/26 19:02:44;;;;;;;13.90;10.10;;;;;;;;;;6149968;28;20463;-73
2022/04/26 19:05:46;;;;;;;15.90;10.15;;;;;;;;;;6168413;28;20412;-73
2022/04/26 19:08:47;;;;;;;13.88;10.23;;;;;;;;;;6170946;28;20058;-73
2022/04/26 19:15:09;;;;;;;18.50;11.68;;;;;;;;;;6175081;28;20055;-73
2022/04/26 19:18:12;;;;;;;15.63;10.38;;;;;;;;;;6153408;28;20055;-73
2022/04/26 19:21:14;;;;;;;13.45;9.60;;;;;;;;;;6151405;28;20063;-72
2022/04/26 19:24:15;;;;;;;13.70;10.32;;;;;;;;;;6148965;28;20161;-73
2022/04/26 19:27:18;;;;;;;15.40;10.30;;;;;;;;;;6153585;28;20059;-72
2022/04/26 19:30:20;;;;;;;16.20;10.83;;;;;;;;;;6147614;28;20230;-73
2022/04/26 19:33:21;;;;;;;15.23;11.40;;;;;;;;;;6149135;28;20111;-73
2022/04/26 19:36:23;;;;;;;17.20;11.18;;;;;;;;;;6159962;28;20050;-73
2022/04/26 19:39:25;;;;;;;15.57;11.23;;;;;;;;;;6153299;28;20094;-73
2022/04/26 19:42:28;;;;;;;17.38;10.85;;;;;;;;;;6161804;28;20059;-73
2022/04/26 19:45:29;;;;;;;17.60;12.60;;;;;;;;;;6159077;28;20115;-73
2022/04/26 19:48:31;;;;;;;17.60;12.30;;;;;;;;;;6157729;28;20051;-74
2022/04/26 19:51:34;;;;;;;17.42;11.88;;;;;;;;;;6158408;28;20062;-74
2022/04/26 19:54:35;;;;;;;20.37;12.37;;;;;;;;;;6156244;28;20060;-74
2022/04/26 19:57:39;;;;;;;16.52;12.35;;;;;;;;;;6158963;28;20097;-74
2022/04/26 20:00:41;;;;;;;18.83;12.65;;;;;;;;;;6158579;28;20051;-74
2022/04/26 20:03:43;;;;;;;14.98;11.20;;;;;;;;;;6156306;28;20355;-74
2022/04/26 20:06:44;;;;;;;18.77;11.68;;;;;;;;;;6149597;28;20051;-74
2022/04/26 20:09:46;;;;;;;14.68;10.43;;;;;;;;;;6154604;28;20047;-74
2022/04/26 20:12:49;;;;;;;21.73;11.60;;;;;;;;;;6152256;28;20051;-75
2022/04/26 20:15:51;;;;;;;14.17;10.53;;;;;;;;;;6155788;28;20058;-74
2022/04/26 20:18:52;;;;;;;15.95;11.48;;;;;;;;;;6153476;28;20478;-74
2022/04/26 20:21:54;;;;;;;12.50;7.95;;;;;;;;;;6151389;28;20074;-75
2022/04/26 20:24:56;;;;;;;18.50;11.00;;;;;;;;;;6151460;28;20055;-74
2022/04/26 20:31:18;;;;;;;10.30;7.63;;;;;;;;;;6153937;28;20059;-74
2022/04/26 20:34:19;;;;;;;10.85;7.45;;;;;;;;;;6152695;28;20051;-75
2022/04/26 20:37:21;;;;;;;9.45;7.35;;;;;;;;;;6153964;28;20102;-76
2022/04/26 20:40:24;;;;;;;8.15;6.38;;;;;;;;;;6150227;28;20054;-76
2022/04/26 20:43:27;;;;;;;11.50;6.95;;;;;;;;;;6154457;28;20054;-74
2022/04/26 20:46:28;;;;;;;10.10;7.00;;;;;;;;;;6151243;28;20055;-73
2022/04/26 20:49:30;;;;;;;10.60;6.55;;;;;;;;;;6152652;28;20114;-73
2022/04/26 20:52:32;;;;;;;12.07;6.15;;;;;;;;;;6148926;28;20077;-73
2022/04/26 20:55:33;;;;;;;10.63;6.47;;;;;;;;;;6151821;28;20102;-75
2022/04/26 20:58:36;;;;;;;9.20;5.38;;;;;;;;;;6149664;28;20055;-71
2022/04/26 21:01:38;;;;;;;9.20;5.30;;;;;;;;;;6149741;28;20067;-74
2022/04/26 21:04:40;;;;;;;8.68;6.00;;;;;;;;;;6156403;28;20055;-74
2022/04/26 21:07:41;;;;;;;9.68;5.50;;;;;;;;;;6156063;28;20055;-75
2022/04/26 21:10:43;;;;;;;7.85;5.15;;;;;;;;;;6146241;28;20059;-74
2022/04/26 21:13:46;;;;;;;8.15;5.28;;;;;;;;;;6150286;28;20063;-74
2022/04/26 21:16:48;;;;;;;8.57;4.83;;;;;;;;;;6156221;28;20065;-75
2022/04/26 21:19:51;;;;;;;10.43;5.03;;;;;;;;;;6152432;28;20227;-76
2022/04/26 21:22:52;;;;;;;9.15;5.40;;;;;;;;;;6148666;28;20073;-75
2022/04/26 21:25:55;;;;;;;7.45;4.57;;;;;;;;;;6147912;28;20059;-76
2022/04/26 21:28:58;;;;;;;10.00;4.88;;;;;;;;;;6147859;28;20057;-76
2022/04/26 21:31:59;;;;;;;7.17;5.03;;;;;;;;;;6154921;28;20134;-75
2022/04/26 21:35:01;;;;;;;7.72;5.40;;;;;;;;;;6153771;28;20051;-74
2022/04/26 21:38:03;;;;;;;7.78;4.78;;;;;;;;;;6154513;28;20059;-74
2022/04/26 21:41:05;;;;;;;9.25;5.72;;;;;;;;;;6147248;28;20062;-74
2022/04/26 21:44:08;;;;;;;9.95;5.60;;;;;;;;;;6149428;28;20233;-74
2022/04/26 21:47:10;;;;;;;7.55;5.30;;;;;;;;;;6140720;28;20059;-74
2022/04/26 21:53:31;;;;;;;8.65;5.10;;;;;;;;;;6154234;28;20066;-74
2022/04/26 21:56:33;;;;;;;7.72;5.32;;;;;;;;;;6151002;28;20059;-74
2022/04/26 21:59:36;;;;;;;8.68;5.30;;;;;;;;;;6154583;28;20326;-74
2022/04/26 22:02:39;;;;;;;9.63;5.37;;;;;;;;;;6155607;28;20131;-74
2022/04/26 22:05:42;;;;;;;8.70;5.50;;;;;;;;;;6149191;28;20063;-74
2022/04/26 22:08:43;;;;;;;9.07;5.75;;;;;;;;;;6152443;28;20055;-74
2022/04/26 22:11:45;;;;;;;9.85;5.82;;;;;;;;;;6149480;28;20059;-74
2022/04/26 22:14:48;;;;;;;10.40;6.38;;;;;;;;;;6149909;28;20054;-74
2022/04/26 22:17:50;;;;;;;9.77;5.93;;;;;;;;;;6147799;28;20106;-74
2022/04/26 22:20:51;;;;;;;9.50;6.03;;;;;;;;;;6151112;28;20102;-74
2022/04/26 22:23:53;;;;;;;10.85;6.13;;;;;;;;;;6150156;28;20103;-74
2022/04/26 22:26:55;;;;;;;11.90;6.45;;;;;;;;;;6152484;28;20071;-74
2022/04/26 22:29:58;;;;;;;11.85;6.57;;;;;;;;;;6152731;28;20054;-74
2022/04/26 22:33:00;;;;;;;10.37;7.40;;;;;;;;;;6174783;28;20109;-74
2022/04/26 22:36:02;;;;;;;8.25;6.50;;;;;;;;;;6172412;28;20295;-74
2022/04/26 22:39:03;;;;;;;28.65;17.83;;;;;;;;;;6170580;28;20132;-76
2022/04/26 22:42:05;;;;;;;13.88;8.07;;;;;;;;;;6172681;28;20094;-74
2022/04/26 22:45:09;;;;;;;9.38;6.30;;;;;;;;;;6170635;28;20055;-74
2022/04/26 22:48:11;;;;;;;13.07;7.53;;;;;;;;;;6173819;28;20051;-74